Pilote(s) en ligne...
 F-GMAN (Gilles)  Vol    HECA/HEBA
 F-KLM200 (Dominique)  
 F-PARJ (PHILIPPE)  Vol    LFRS/LFKJ
 F-BNJM (François)  

Compagnie Fsx-France ! Un nouveau look pour votre VA, par : Julien & Co

 METAR ET TAF INFORMATION
METAR FOR HESN
ADDS - METARS form results

(0956 UTC 26 November 2020)
Data provider http://aviationweather.gov/metar/data/
 
Forecast for: HESN (ASWAN (CIV/MIL) , EG)
Text: TAF HESN 260500Z 2606/2712 36012KT CAVOK
Forecast period: 0600 UTC 26 November 2020 to 1200 UTC 27 November 2020
Forecast type: FROM: standard forecast or significant change
Winds: from the N (360 degrees) at 14 MPH (12 knots; 6.2 m/s)
Visibility: 6 or more miles (10+ km)
Ceiling: unknown
Clouds: missing
Weather: NSW  (no significant weather)

 AÉROPORT DE AÉROPORT

 INFORMATIONS DE PISTE
Piste 17 Longueur de la piste 3402 m = 11161 ft Largeur de la piste 45 m = 148 ft
Élévation de la piste 610 ft Seuil de la piste déplacés 0 ft Runway heading 171
Piste 35 Longueur de la piste 3402 m = 11161 ft Largeur de la piste 45 m = 148 ft
Élévation de la piste 654 ft Seuil de la piste déplacés 0 ft Runway heading 351
 AÉROPORT FRÉQUENCES
Type APP Nom RADAR Féquence 119.35 MHZ
Type EMR Nom FIRE Féquence 121.9 MHZ
Type RDO Nom RDO Féquence 585.9 MHZ
Type TWR Nom TWR Féquence 118.3 MHZ

 AIDES A LA NAVIGATION
Type VOR-DME Nom Aswan Féquence 112300 KHZ